USTRUNKL

Guest
Details From USTR - Roschino
To UNKL - Yemelyanovo
Flight Number -
Tags Generated
Created
Modified
Stats Distance 894 nm / 1,655 km
Max Altitude 0 ft / 0 m
Waypoints 5
Social Downloads 0
Likes 0
Share VATSIM

Download

Looking for another format? Having issues loading an existing format? Contact us
Advertisement - Login to hide

Notes

Generated

Route

USTR MINOR SP AJ UNKL

ID Type Via Altitude Latitude Longitude Leg Dist Tot Dist Heading (true) Name
O USTR APT - 0 ft / 0 m 57.17551˚ 65.29199˚ - 0 nm - -
MINOR FIX - 0 ft / 0 m 57.25000˚ 79.06667˚ 447 nm 447 nm 84° / 95° -
SP NDB - 0 ft / 0 m 56.70000˚ 85.35000˚ 208 nm 655 nm 96° / 102° -
AJ NDB - 0 ft / 0 m 56.19333˚ 92.40667˚ 236 nm 891 nm 94° / 100° KRASNOYARSK NDB
O UNKL APT - 0 ft / 0 m 56.17948˚ 92.46587˚ 2 nm 893 nm 113° / 113° -

Altitude Profile

Advertisement - Login to hide

Weather


0- 5 10 15 20 25 30 35+ Temperature / ° C

Clouds and Precipitation
Forecast for 2017-12-16 12:00 UTC. Updated 6 minutes ago

Ground ~20,000 ft ~40,000 ft Winds

USTR

Details ICAO USTR (TJM)
Name Roschino
Region Russia
Timezone Asia/Yekaterinburg (UTC+5.0)
Stats Elevation 377 ft / 115 m (AMSL)
Location 57.180416° 65.314677°
Runways 3
Magnetic Variation 14.974° E

METAR

USTR 160900Z 21005MPS CAVOK M10/M15 Q1038 R30/CLRD65 NOSIG RMK QFE769/1025

Decode

TAF

TAF USTR 160753Z 1609/1709 21006MPS 9999 SCT030 TEMPO 1609/1612 22008MPS DRSN BECMG 1612/1614 22004MPS TEMPO 1614/1706 3100 BR FU

Decode

Departure Runways

ID Width Length Bearing (true) Bearing (mag) Surface Threshold Offset Overrun Length
03 148 ft / 45 m 9,827 ft / 2,995 m 47.68° 32.71° Asphalt 0 ft / 0 m 0 ft / 0 m
03L 328 ft / 100 m 6,705 ft / 2,044 m 47.58° 32.61° Grass 0 ft / 0 m 0 ft / 0 m
12 164 ft / 50 m 8,820 ft / 2,688 m 134.79° 119.82° Asphalt 0 ft / 0 m 0 ft / 0 m
21 148 ft / 45 m 9,827 ft / 2,995 m 227.71° 212.74° Asphalt 0 ft / 0 m 0 ft / 0 m
21R 328 ft / 100 m 6,705 ft / 2,044 m 227.60° 212.63° Grass 0 ft / 0 m 0 ft / 0 m
30 164 ft / 50 m 8,820 ft / 2,688 m 314.81° 299.84° Asphalt 0 ft / 0 m 0 ft / 0 m

UNKL

Details ICAO UNKL (KJA)
Name YEMELYANOVO
Region Russia
Timezone Asia/Krasnoyarsk (UTC+7.0)
Stats Elevation 942 ft / 287 m (AMSL)
Location 56.172946° 92.493276°
Runways 1
Magnetic Variation 4.123° E

METAR

UNKL 160900Z 26008MPS 6000 -SHSN BLSN SCT036CB M06/M09 Q1033 R29/450245 TEMPO 28013G19MPS 1000 SHSN BLSN RMK QFE748

Decode

TAF

TAF UNKL 160752Z 1609/1709 26008G13MPS 4000 -SHSN BLSN SCT020CB TEMPO 1609/1612 29013G18MPS 1000 SHSN BLSN VV005 FM161200 25003G08MPS 9999 -SN SCT016 TEMPO 1612/1709 27008G13MPS 2500 -SN BLSN SCT010

Decode

Destination Runways

ID Width Length Bearing (true) Bearing (mag) Surface Threshold Offset Overrun Length
11 197 ft / 60 m 12,113 ft / 3,692 m 113.16° 109.04° Asphalt 0 ft / 0 m 235 ft / 72 m
29 197 ft / 60 m 12,113 ft / 3,692 m 293.21° 289.09° Asphalt 0 ft / 0 m 215 ft / 66 m